createdAt,value
2023-04-18T00:00:12.597Z,3.00
2023-04-18T00:02:20.802Z,2.83
2023-04-18T00:03:25.194Z,3.05
2023-04-18T00:04:28.089Z,2.70
2023-04-18T00:05:31.970Z,2.65
2023-04-18T00:07:40.276Z,3.03
2023-04-18T00:08:43.082Z,2.88
2023-04-18T00:09:46.811Z,3.60
2023-04-18T00:10:49.650Z,3.00
2023-04-18T00:11:53.650Z,3.03
2023-04-18T00:12:56.356Z,3.00
2023-04-18T00:14:00.300Z,3.00
2023-04-18T00:15:03.374Z,3.03
2023-04-18T00:16:09.614Z,2.58
2023-04-18T00:17:14.791Z,2.88
2023-04-18T00:18:18.465Z,3.05
2023-04-18T00:20:26.781Z,3.33
2023-04-18T00:21:30.325Z,3.20
2023-04-18T00:22:34.400Z,2.88
2023-04-18T00:23:37.414Z,3.20
2023-04-18T00:24:42.240Z,3.17
2023-04-18T00:25:44.942Z,3.00
2023-04-18T00:26:49.137Z,2.95
2023-04-18T00:27:52.003Z,2.92
2023-04-18T00:28:55.721Z,2.97
2023-04-18T00:29:58.386Z,3.33
2023-04-18T00:31:02.182Z,2.95
2023-04-18T00:32:04.902Z,3.33
2023-04-18T00:33:11.610Z,3.72
2023-04-18T00:34:14.603Z,3.47
2023-04-18T00:35:20.330Z,3.05
2023-04-18T00:36:23.073Z,3.30
2023-04-18T00:37:26.696Z,3.65
2023-04-18T00:39:32.853Z,3.30
2023-04-18T00:40:35.673Z,3.35
2023-04-18T00:41:39.460Z,3.42
2023-04-18T00:42:42.073Z,3.58
2023-04-18T00:43:45.867Z,3.28
2023-04-18T00:44:48.614Z,3.28
2023-04-18T00:45:52.575Z,3.70
2023-04-18T00:46:55.207Z,3.53
2023-04-18T00:47:59.315Z,3.85
2023-04-18T00:49:04.737Z,3.10
2023-04-18T00:50:09.881Z,3.55
2023-04-18T00:51:13.090Z,3.40
2023-04-18T00:52:18.647Z,3.85
2023-04-18T00:53:21.885Z,3.63
2023-04-18T00:54:28.064Z,4.20
2023-04-18T00:55:30.961Z,3.35
2023-04-18T00:56:35.338Z,3.50
2023-04-18T00:57:38.019Z,3.22
2023-04-18T00:58:41.829Z,3.33
2023-04-18T00:59:44.745Z,3.78
2023-04-18T01:00:48.497Z,3.90
2023-04-18T01:01:51.153Z,3.80
2023-04-18T01:02:56.006Z,3.53
2023-04-18T01:03:58.909Z,3.83
2023-04-18T01:05:04.502Z,3.72
2023-04-18T01:06:07.546Z,3.08
2023-04-18T01:07:11.549Z,3.97
2023-04-18T01:08:14.696Z,3.83
2023-04-18T01:09:18.507Z,3.45
2023-04-18T01:10:21.330Z,3.70
2023-04-18T01:11:24.889Z,3.88
2023-04-18T01:13:30.933Z,3.28
2023-04-18T01:14:33.624Z,3.97
2023-04-18T01:15:37.291Z,3.78
2023-04-18T01:16:40.211Z,3.60
2023-04-18T01:17:43.959Z,3.90
2023-04-18T01:18:46.651Z,3.83
2023-04-18T01:19:51.280Z,3.72
2023-04-18T01:20:57.463Z,3.53
2023-04-18T01:22:01.195Z,3.72
2023-04-18T01:23:04.375Z,3.88
2023-04-18T01:24:13.691Z,3.22
2023-04-18T01:25:16.495Z,3.63
2023-04-18T01:26:21.356Z,3.53
2023-04-18T01:27:24.171Z,3.50
2023-04-18T01:28:27.969Z,3.80
2023-04-18T01:29:30.650Z,3.95
2023-04-18T01:30:34.722Z,3.83
2023-04-18T01:31:38.707Z,3.30
2023-04-18T01:32:42.661Z,3.70
2023-04-18T01:33:45.420Z,3.15
2023-04-18T01:34:49.074Z,3.55
2023-04-18T01:35:52.123Z,3.58
2023-04-18T01:36:55.794Z,3.63
2023-04-18T01:37:59.062Z,3.72
2023-04-18T01:39:02.965Z,3.75
2023-04-18T01:40:08.797Z,3.75
2023-04-18T01:41:12.518Z,3.55
2023-04-18T01:42:15.207Z,3.60
2023-04-18T01:43:18.756Z,3.97
2023-04-18T01:44:21.543Z,3.90
2023-04-18T01:45:25.207Z,3.65
2023-04-18T01:46:28.099Z,3.63
2023-04-18T01:47:31.868Z,3.95
2023-04-18T01:48:34.512Z,3.20
2023-04-18T01:49:38.071Z,3.67
2023-04-18T01:50:40.881Z,3.63
2023-04-18T01:51:44.500Z,3.60
2023-04-18T01:52:47.561Z,4.03
2023-04-18T01:53:51.551Z,4.05
2023-04-18T01:54:54.197Z,3.70
2023-04-18T01:55:59.659Z,3.70
2023-04-18T01:57:02.248Z,3.90
2023-04-18T01:58:05.937Z,4.28
2023-04-18T01:59:08.615Z,3.38
2023-04-18T02:00:13.563Z,3.90
2023-04-18T02:01:16.263Z,3.90
2023-04-18T02:02:20.138Z,3.63
2023-04-18T02:03:23.279Z,3.72
2023-04-18T02:04:26.960Z,3.88
2023-04-18T02:06:32.890Z,3.92
2023-04-18T02:08:39.070Z,3.58
2023-04-18T02:09:41.741Z,3.47
2023-04-18T02:10:45.446Z,3.85
2023-04-18T02:11:49.652Z,4.20
2023-04-18T02:12:53.313Z,4.07
2023-04-18T02:13:56.383Z,3.88
2023-04-18T02:15:00.151Z,3.72
2023-04-18T02:16:03.003Z,3.80
2023-04-18T02:17:06.661Z,3.78
2023-04-18T02:18:10.218Z,3.78
2023-04-18T02:19:13.933Z,4.18
2023-04-18T02:20:16.697Z,3.85
2023-04-18T02:21:22.068Z,3.75
2023-04-18T02:22:24.838Z,3.65
2023-04-18T02:23:28.935Z,3.85
2023-04-18T02:24:31.605Z,4.10
2023-04-18T02:25:35.215Z,4.00
2023-04-18T02:27:42.597Z,3.38
2023-04-18T02:28:45.340Z,4.13
2023-04-18T02:29:49.018Z,4.32
2023-04-18T02:30:51.851Z,4.30
2023-04-18T02:31:55.610Z,3.90
2023-04-18T02:32:58.296Z,3.83
2023-04-18T02:34:01.969Z,3.92
2023-04-18T02:36:08.896Z,4.00
2023-04-18T02:37:11.690Z,3.70
2023-04-18T02:38:15.270Z,3.35
2023-04-18T02:39:18.155Z,4.13
2023-04-18T02:40:22.203Z,4.40
2023-04-18T02:41:24.955Z,3.60
2023-04-18T02:42:28.704Z,3.58
2023-04-18T02:43:33.469Z,4.22
2023-04-18T02:44:37.084Z,4.25
2023-04-18T02:46:43.376Z,4.32
2023-04-18T02:48:59.417Z,3.80
2023-04-18T02:50:02.138Z,4.45
2023-04-18T02:51:06.632Z,3.97
2023-04-18T02:52:09.320Z,4.07
2023-04-18T02:53:13.076Z,3.88
2023-04-18T02:54:15.951Z,4.15
2023-04-18T02:55:20.236Z,3.88
2023-04-18T02:56:25.038Z,3.95
2023-04-18T02:57:27.583Z,4.95
2023-04-18T02:58:31.298Z,4.65
2023-04-18T02:59:35.241Z,4.80
2023-04-18T03:00:39.108Z,4.28
2023-04-18T03:02:45.310Z,3.92
2023-04-18T03:03:47.930Z,3.88
2023-04-18T03:04:51.554Z,4.18
2023-04-18T03:05:55.268Z,3.88
2023-04-18T03:06:59.429Z,3.80
2023-04-18T03:08:03.329Z,4.22
2023-04-18T03:09:05.927Z,4.30
2023-04-18T03:10:10.220Z,4.47
2023-04-18T03:11:12.704Z,4.60
2023-04-18T03:12:16.626Z,3.65
2023-04-18T03:13:19.135Z,4.25
2023-04-18T03:14:22.923Z,4.43
2023-04-18T03:16:31.256Z,4.28
2023-04-18T03:17:34.358Z,4.10
2023-04-18T03:18:38.020Z,3.92
2023-04-18T03:19:40.757Z,4.20
2023-04-18T03:20:44.414Z,3.90
2023-04-18T03:21:47.008Z,4.60
2023-04-18T03:22:50.656Z,3.83
2023-04-18T03:23:53.711Z,4.15
2023-04-18T03:24:57.451Z,4.43
2023-04-18T03:26:00.170Z,4.60
2023-04-18T03:27:03.778Z,4.63
2023-04-18T03:29:10.602Z,4.00
2023-04-18T03:30:13.609Z,4.18
2023-04-18T03:31:18.741Z,4.68
2023-04-18T03:32:22.577Z,4.45
2023-04-18T03:33:26.372Z,4.45
2023-04-18T03:34:29.773Z,4.28
2023-04-18T03:35:33.487Z,4.18
2023-04-18T03:36:37.301Z,4.30
2023-04-18T03:38:43.536Z,4.15
2023-04-18T03:39:46.297Z,4.97
2023-04-18T03:40:50.158Z,4.63
2023-04-18T03:41:52.833Z,4.25
2023-04-18T03:42:56.417Z,4.10
2023-04-18T03:45:02.391Z,4.20
2023-04-18T03:46:07.673Z,4.43
2023-04-18T03:47:14.766Z,4.15
2023-04-18T03:48:17.447Z,4.72
2023-04-18T03:49:21.342Z,4.40
2023-04-18T03:50:25.879Z,4.63
2023-04-18T03:51:31.573Z,4.22
2023-04-18T03:52:34.183Z,4.60
2023-04-18T03:53:37.936Z,4.20
2023-04-18T03:54:40.769Z,4.13
2023-04-18T03:55:45.105Z,4.22
2023-04-18T03:56:47.867Z,4.40
2023-04-18T03:57:51.759Z,4.43
2023-04-18T03:58:54.477Z,4.35
2023-04-18T03:59:58.229Z,4.20
2023-04-18T04:01:01.459Z,4.35
2023-04-18T04:02:05.361Z,4.32
2023-04-18T04:03:09.760Z,4.03
2023-04-18T04:04:15.817Z,3.85
2023-04-18T04:05:18.844Z,4.88
2023-04-18T04:06:22.489Z,4.07
2023-04-18T04:08:28.445Z,4.30
2023-04-18T04:10:34.688Z,4.07
2023-04-18T04:11:37.454Z,4.15
2023-04-18T04:12:41.170Z,5.18
2023-04-18T04:13:43.849Z,4.22
2023-04-18T04:14:47.536Z,4.47
2023-04-18T04:15:51.392Z,4.25
2023-04-18T04:16:55.063Z,4.30
2023-04-18T04:17:57.793Z,4.50
2023-04-18T04:19:03.034Z,4.40
2023-04-18T04:20:06.795Z,4.30
2023-04-18T04:22:12.780Z,3.95
2023-04-18T04:23:16.593Z,5.00
2023-04-18T04:24:20.714Z,4.30
2023-04-18T04:25:25.110Z,4.60
2023-04-18T04:26:27.920Z,3.97
2023-04-18T04:27:31.668Z,4.50
2023-04-18T04:29:38.909Z,4.95
2023-04-18T04:30:41.911Z,4.22
2023-04-18T04:31:46.336Z,4.85
2023-04-18T04:32:49.708Z,4.47
2023-04-18T04:33:53.404Z,4.25
2023-04-18T04:34:57.616Z,4.30
2023-04-18T04:36:01.689Z,4.65
2023-04-18T04:37:04.482Z,4.45
2023-04-18T04:38:08.654Z,4.10
2023-04-18T04:39:11.898Z,4.80
2023-04-18T04:40:16.360Z,4.25
2023-04-18T04:41:19.171Z,4.45
2023-04-18T04:42:25.528Z,4.22
2023-04-18T04:43:28.934Z,4.50
2023-04-18T04:44:33.132Z,4.30
2023-04-18T04:45:36.507Z,4.38
2023-04-18T04:46:42.372Z,4.38
2023-04-18T04:47:45.249Z,4.50
2023-04-18T04:48:49.855Z,3.92
2023-04-18T04:49:52.654Z,4.30
2023-04-18T04:50:59.483Z,4.80
2023-04-18T04:52:03.746Z,4.78
2023-04-18T04:53:07.842Z,4.45
2023-04-18T04:54:10.592Z,4.47
2023-04-18T04:55:14.304Z,4.45
2023-04-18T04:56:17.230Z,4.13
2023-04-18T04:57:20.966Z,4.65
2023-04-18T04:58:24.077Z,3.75
2023-04-18T04:59:27.679Z,4.88
2023-04-18T05:00:30.592Z,4.28
2023-04-18T05:01:34.228Z,4.20
2023-04-18T05:02:37.138Z,4.50
2023-04-18T05:03:41.364Z,4.18
2023-04-18T05:04:44.079Z,4.57
2023-04-18T05:05:47.754Z,4.53
2023-04-18T05:06:53.227Z,4.22
2023-04-18T05:07:55.851Z,4.40
2023-04-18T05:09:01.263Z,4.53
2023-04-18T05:10:04.503Z,4.05
2023-04-18T05:11:08.434Z,4.13
2023-04-18T05:13:14.375Z,3.90
2023-04-18T05:14:18.049Z,4.10
2023-04-18T05:16:24.314Z,3.90
2023-04-18T05:17:28.079Z,4.20
2023-04-18T05:19:34.608Z,5.95
2023-04-18T05:20:37.249Z,4.47
2023-04-18T05:21:41.123Z,4.35
2023-04-18T05:22:45.385Z,4.32
2023-04-18T05:23:52.691Z,4.13
2023-04-18T05:24:55.622Z,4.22
2023-04-18T05:25:59.241Z,4.20
2023-04-18T05:27:02.212Z,4.38
2023-04-18T05:28:06.005Z,4.00
2023-04-18T05:29:09.759Z,4.55
2023-04-18T05:30:12.733Z,4.22
2023-04-18T05:31:16.499Z,4.82
2023-04-18T05:34:24.651Z,4.60
2023-04-18T05:35:28.501Z,4.35
2023-04-18T05:36:32.064Z,4.10
2023-04-18T05:38:39.473Z,4.38
2023-04-18T05:39:43.657Z,4.25
2023-04-18T05:40:46.278Z,4.75
2023-04-18T05:41:50.084Z,4.13
2023-04-18T05:44:04.895Z,3.92
2023-04-18T05:45:10.398Z,4.05
2023-04-18T05:46:13.168Z,4.63
2023-04-18T05:47:17.837Z,4.32
2023-04-18T05:48:25.936Z,4.15
2023-04-18T05:49:31.324Z,4.03
2023-04-18T05:50:36.042Z,4.65
2023-04-18T05:51:40.118Z,4.20
2023-04-18T05:52:45.257Z,4.43
2023-04-18T05:53:55.455Z,4.72
2023-04-18T05:54:59.221Z,4.47
2023-04-18T05:56:01.928Z,4.70
2023-04-18T05:57:05.751Z,4.38
2023-04-18T05:58:08.333Z,4.70
2023-04-18T05:59:12.253Z,5.63
2023-04-18T06:00:17.412Z,4.65
2023-04-18T06:01:21.618Z,4.78
2023-04-18T06:02:25.090Z,4.72
2023-04-18T06:03:29.002Z,4.68
2023-04-18T06:04:32.013Z,4.30
2023-04-18T06:05:36.093Z,4.70
2023-04-18T06:06:40.277Z,4.10
2023-04-18T06:07:43.583Z,4.90
2023-04-18T06:08:47.270Z,4.53
2023-04-18T06:10:57.172Z,4.63
2023-04-18T06:12:00.160Z,4.50
2023-04-18T06:13:04.289Z,4.93
2023-04-18T06:14:07.952Z,4.32
2023-04-18T06:15:12.883Z,3.83
2023-04-18T06:16:15.832Z,4.50
2023-04-18T06:17:19.580Z,4.82
2023-04-18T06:18:22.373Z,4.38
2023-04-18T06:19:25.993Z,5.00
2023-04-18T06:22:34.396Z,4.47
2023-04-18T06:23:38.775Z,4.45
2023-04-18T06:24:41.469Z,4.82
2023-04-18T06:25:46.901Z,4.45
2023-04-18T06:26:49.561Z,4.00
2023-04-18T06:27:53.467Z,4.30
2023-04-18T06:28:57.102Z,5.28
2023-04-18T06:30:00.872Z,4.20
2023-04-18T06:31:03.717Z,4.57
2023-04-18T06:32:07.984Z,4.45
2023-04-18T06:33:11.912Z,4.32
2023-04-18T06:34:16.259Z,5.00
2023-04-18T06:35:20.130Z,4.70
2023-04-18T06:36:22.839Z,4.30
2023-04-18T06:37:26.599Z,4.55
2023-04-18T06:38:30.399Z,3.95
2023-04-18T06:39:33.117Z,4.93
2023-04-18T06:40:36.906Z,4.57
2023-04-18T06:42:44.580Z,4.88
2023-04-18T06:44:02.151Z,4.60
2023-04-18T06:45:08.219Z,4.90
2023-04-18T06:46:10.929Z,3.97
2023-04-18T06:47:14.728Z,4.47
2023-04-18T06:48:18.636Z,4.05
2023-04-18T06:49:26.097Z,3.95
2023-04-18T06:50:30.836Z,4.07
2023-04-18T06:51:34.504Z,4.22
2023-04-18T06:52:40.894Z,4.07
2023-04-18T06:53:46.052Z,3.90
2023-04-18T06:54:48.829Z,4.20
2023-04-18T06:55:52.607Z,4.53
2023-04-18T06:56:58.086Z,4.80
2023-04-18T06:58:00.961Z,4.10
2023-04-18T06:59:04.682Z,4.68
2023-04-18T07:01:11.754Z,4.85
2023-04-18T07:02:15.763Z,4.88
2023-04-18T07:03:18.741Z,4.20
2023-04-18T07:04:22.684Z,4.45
2023-04-18T07:05:26.537Z,4.32
2023-04-18T07:06:29.356Z,4.88
2023-04-18T07:07:33.249Z,4.40
2023-04-18T07:08:36.207Z,4.13
2023-04-18T07:09:39.731Z,4.20
2023-04-18T07:11:45.853Z,5.07
2023-04-18T07:12:51.160Z,4.75
2023-04-18T07:13:53.907Z,4.68
2023-04-18T07:14:57.630Z,4.07
2023-04-18T07:17:06.365Z,3.83
2023-04-18T07:18:09.494Z,4.38
2023-04-18T07:19:13.157Z,4.05
2023-04-18T07:20:17.045Z,3.78
2023-04-18T07:21:20.903Z,4.15
2023-04-18T07:22:24.786Z,3.67
2023-04-18T07:23:27.306Z,4.22
2023-04-18T07:24:31.508Z,4.13
2023-04-18T07:25:35.335Z,4.10
2023-04-18T07:26:39.768Z,4.43
2023-04-18T07:27:42.364Z,4.13
2023-04-18T07:28:47.722Z,4.28
2023-04-18T07:29:51.416Z,4.68
2023-04-18T07:30:55.621Z,4.75
2023-04-18T07:31:59.425Z,4.18
2023-04-18T07:33:03.403Z,4.45
2023-04-18T07:34:07.219Z,3.90
2023-04-18T07:35:12.052Z,4.00
2023-04-18T07:36:14.647Z,4.07
2023-04-18T07:37:19.211Z,4.80
2023-04-18T07:38:21.892Z,4.60
2023-04-18T07:39:25.850Z,4.35
2023-04-18T07:40:29.492Z,4.10
2023-04-18T07:41:33.565Z,4.40
2023-04-18T07:42:36.116Z,4.28
2023-04-18T07:43:40.815Z,3.88
2023-04-18T07:44:44.929Z,3.92
2023-04-18T07:45:48.756Z,4.07
2023-04-18T07:46:52.393Z,3.83
2023-04-18T07:47:56.995Z,3.75
2023-04-18T07:49:02.504Z,4.38
2023-04-18T07:50:06.253Z,3.85
2023-04-18T07:51:09.919Z,3.83
2023-04-18T07:52:13.730Z,3.88
2023-04-18T07:53:16.342Z,4.25
2023-04-18T07:54:20.277Z,3.90
2023-04-18T07:55:24.033Z,3.40
2023-04-18T07:56:27.840Z,4.05
2023-04-18T07:57:30.379Z,4.32
2023-04-18T07:58:36.329Z,4.15
2023-04-18T07:59:40.748Z,4.10
2023-04-18T08:00:45.863Z,3.60
2023-04-18T08:01:51.010Z,4.38
2023-04-18T08:02:54.822Z,4.00
2023-04-18T08:04:02.063Z,4.85
2023-04-18T08:05:06.933Z,4.10
2023-04-18T08:06:10.053Z,3.90
2023-04-18T08:07:14.142Z,4.50
2023-04-18T08:08:18.562Z,4.15
2023-04-18T08:09:22.013Z,4.18
2023-04-18T08:10:25.873Z,4.10
2023-04-18T08:11:28.537Z,3.90
2023-04-18T08:12:32.228Z,3.70
2023-04-18T08:13:35.294Z,3.78
2023-04-18T08:14:38.935Z,4.30
2023-04-18T08:15:43.030Z,3.67
2023-04-18T08:16:48.326Z,4.10
2023-04-18T08:17:51.747Z,4.00
2023-04-18T08:18:55.442Z,4.10
2023-04-18T08:19:58.419Z,4.10
2023-04-18T08:21:02.302Z,4.10
2023-04-18T08:22:12.496Z,4.25
2023-04-18T08:23:16.325Z,3.67
2023-04-18T08:24:20.179Z,4.03
2023-04-18T08:25:23.936Z,3.67
2023-04-18T08:26:27.904Z,4.15
2023-04-18T08:27:31.611Z,4.30
2023-04-18T08:28:35.475Z,4.15
2023-04-18T08:29:39.220Z,3.38
2023-04-18T08:30:42.637Z,3.65
2023-04-18T08:31:48.080Z,4.10
2023-04-18T08:32:51.101Z,4.00
2023-04-18T08:33:54.717Z,3.90
2023-04-18T08:34:58.551Z,3.63
2023-04-18T08:36:01.194Z,3.72
2023-04-18T08:37:04.996Z,4.15
2023-04-18T08:38:09.030Z,4.35
2023-04-18T08:39:12.061Z,5.07
2023-04-18T08:40:15.982Z,4.07
2023-04-18T08:41:23.527Z,4.10
2023-04-18T08:42:27.888Z,3.83
2023-04-18T08:43:31.539Z,3.85
2023-04-18T08:45:38.755Z,3.58
2023-04-18T08:46:42.672Z,3.58
2023-04-18T08:47:48.084Z,4.00
2023-04-18T08:48:53.225Z,3.63
2023-04-18T08:49:56.056Z,3.70
2023-04-18T08:51:02.425Z,4.32
2023-04-18T08:52:11.420Z,4.30
2023-04-18T08:53:18.101Z,4.32
2023-04-18T08:54:22.693Z,3.85
2023-04-18T08:55:26.565Z,3.85
2023-04-18T08:56:29.258Z,4.47
2023-04-18T08:57:33.701Z,3.47
2023-04-18T08:58:37.523Z,4.38
2023-04-18T08:59:43.210Z,4.30
2023-04-18T09:00:51.944Z,3.90
2023-04-18T09:01:57.244Z,4.32
2023-04-18T09:03:04.153Z,4.50
2023-04-18T09:04:08.240Z,5.18
2023-04-18T09:05:15.623Z,4.45
2023-04-18T09:06:19.444Z,4.57
2023-04-18T09:07:31.489Z,4.43
2023-04-18T09:08:35.624Z,4.18
2023-04-18T09:09:48.500Z,4.22
2023-04-18T09:10:52.916Z,3.83
2023-04-18T09:12:08.699Z,4.40
2023-04-18T09:13:12.700Z,3.80
2023-04-18T09:14:24.882Z,3.80
2023-04-18T09:15:31.477Z,3.58
2023-04-18T09:16:48.321Z,3.95
2023-04-18T09:17:54.121Z,3.10
2023-04-18T09:19:14.000Z,4.00
2023-04-18T09:20:35.183Z,3.92
2023-04-18T09:21:40.555Z,3.58
2023-04-18T09:22:50.748Z,3.30
2023-04-18T09:24:17.788Z,3.63
2023-04-18T09:25:29.618Z,3.78
2023-04-18T09:26:36.649Z,3.63
2023-04-18T09:27:40.534Z,3.70
2023-04-18T09:28:54.729Z,4.15
2023-04-18T09:29:58.848Z,3.60
2023-04-18T09:31:12.289Z,3.63
2023-04-18T09:32:25.588Z,4.20
2023-04-18T09:33:32.734Z,4.25
2023-04-18T09:34:42.833Z,4.00
2023-04-18T09:35:47.426Z,3.88
2023-04-18T09:37:08.059Z,4.40
2023-04-18T09:38:11.820Z,4.28
2023-04-18T09:39:29.903Z,3.78
2023-04-18T09:40:34.422Z,4.13
2023-04-18T09:41:37.197Z,3.97
2023-04-18T09:42:41.280Z,4.15
2023-04-18T09:43:47.511Z,3.75
2023-04-18T09:45:03.906Z,3.72
2023-04-18T09:46:11.449Z,3.90
2023-04-18T09:47:16.758Z,3.75
2023-04-18T09:48:20.432Z,4.28
2023-04-18T09:50:31.528Z,3.75
2023-04-18T09:51:35.280Z,3.33
2023-04-18T09:54:04.953Z,3.90
2023-04-18T09:55:11.545Z,3.67
2023-04-18T09:56:21.508Z,3.97
2023-04-18T09:57:27.959Z,3.92
2023-04-18T09:58:34.353Z,4.00
2023-04-18T09:59:44.947Z,3.75
2023-04-18T10:00:49.273Z,3.97
2023-04-18T10:01:53.888Z,3.90
2023-04-18T10:03:00.246Z,4.15
2023-04-18T10:04:12.373Z,3.90
2023-04-18T10:05:21.225Z,4.72
2023-04-18T10:06:30.487Z,3.92
2023-04-18T10:07:37.815Z,4.00
2023-04-18T10:08:42.239Z,4.00
2023-04-18T10:09:47.384Z,4.55
2023-04-18T10:10:51.601Z,4.45
2023-04-18T10:11:56.192Z,4.07
2023-04-18T10:13:04.087Z,3.58
2023-04-18T10:14:10.366Z,3.70
2023-04-18T10:15:15.947Z,3.75
2023-04-18T10:16:21.162Z,4.00
2023-04-18T10:17:24.586Z,4.30
2023-04-18T10:18:28.422Z,4.03
2023-04-18T10:19:31.122Z,4.28
2023-04-18T10:20:36.303Z,4.50
2023-04-18T10:21:51.878Z,3.92
2023-04-18T10:22:57.188Z,3.80
2023-04-18T10:24:02.438Z,4.80
2023-04-18T10:25:07.143Z,3.80
2023-04-18T10:26:11.643Z,4.80
2023-04-18T10:27:14.274Z,4.45
2023-04-18T10:28:19.314Z,3.50
2023-04-18T10:29:50.568Z,3.42
2023-04-18T10:31:03.966Z,3.78
2023-04-18T10:32:07.011Z,3.88
2023-04-18T10:33:30.502Z,4.70
2023-04-18T10:34:38.863Z,3.97
2023-04-18T10:35:57.076Z,4.35
2023-04-18T10:37:08.892Z,3.60
2023-04-18T10:38:18.670Z,4.03
2023-04-18T10:39:25.712Z,3.45
2023-04-18T10:40:34.235Z,3.95
2023-04-18T10:41:51.104Z,3.78
2023-04-18T10:43:00.127Z,4.10
2023-04-18T10:44:18.639Z,4.35
2023-04-18T10:45:24.092Z,4.03
2023-04-18T10:46:32.338Z,3.97
2023-04-18T10:47:37.291Z,4.03
2023-04-18T10:48:40.254Z,3.63
2023-04-18T10:49:56.308Z,4.32
2023-04-18T10:52:23.053Z,3.95
2023-04-18T10:53:27.096Z,4.25
2023-04-18T10:54:36.228Z,4.00
2023-04-18T10:55:46.040Z,4.35
2023-04-18T10:56:58.365Z,3.95
2023-04-18T10:58:02.764Z,4.10
2023-04-18T10:59:07.981Z,4.70
2023-04-18T11:00:14.279Z,4.20
2023-04-18T11:01:31.728Z,4.43
2023-04-18T11:02:35.659Z,4.78
2023-04-18T11:03:41.961Z,4.78
2023-04-18T11:04:50.279Z,3.38
2023-04-18T11:06:03.392Z,4.25
2023-04-18T11:07:07.899Z,4.65
2023-04-18T11:08:25.810Z,4.18
2023-04-18T11:09:28.556Z,4.40
2023-04-18T11:10:32.284Z,4.00
2023-04-18T11:11:35.208Z,4.70
2023-04-18T11:12:40.074Z,3.97
2023-04-18T11:14:04.020Z,4.40
2023-04-18T11:15:12.875Z,4.22
2023-04-18T11:16:29.085Z,4.05
2023-04-18T11:17:36.237Z,3.92
2023-04-18T11:18:42.749Z,4.50
2023-04-18T11:19:47.520Z,4.75
2023-04-18T11:20:53.931Z,4.28
2023-04-18T11:22:05.537Z,4.22
2023-04-18T11:23:18.465Z,4.18
2023-04-18T11:24:25.885Z,4.10
2023-04-18T11:25:32.238Z,3.97
2023-04-18T11:26:51.790Z,4.35
2023-04-18T11:27:56.924Z,4.35
2023-04-18T11:29:04.882Z,4.38
2023-04-18T11:30:15.333Z,4.00
2023-04-18T11:31:24.196Z,4.55
2023-04-18T11:32:27.217Z,4.45
2023-04-18T11:33:31.553Z,4.25
2023-04-18T11:34:34.507Z,3.83
2023-04-18T11:35:42.043Z,4.65
2023-04-18T11:36:48.784Z,4.38
2023-04-18T11:37:52.565Z,4.28
2023-04-18T11:38:57.801Z,4.93
2023-04-18T11:40:05.253Z,3.90
2023-04-18T11:41:14.113Z,4.63
2023-04-18T11:42:17.856Z,3.88
2023-04-18T11:43:23.600Z,3.67
2023-04-18T11:44:27.959Z,4.20
2023-04-18T11:45:31.961Z,4.25
2023-04-18T11:46:39.022Z,4.00
2023-04-18T11:47:44.322Z,4.60
2023-04-18T11:48:50.392Z,4.20
2023-04-18T11:50:01.133Z,4.22
2023-04-18T11:51:04.853Z,4.30
2023-04-18T11:52:13.024Z,4.10
2023-04-18T11:53:17.259Z,3.67
2023-04-18T11:54:41.424Z,4.28
2023-04-18T11:55:56.216Z,4.10
2023-04-18T11:57:03.519Z,3.92
2023-04-18T11:58:07.687Z,3.80
2023-04-18T11:59:10.766Z,3.80
2023-04-18T12:00:19.463Z,4.25
2023-04-18T12:01:24.021Z,4.43
2023-04-18T12:02:29.522Z,4.03
2023-04-18T12:03:34.718Z,5.18
2023-04-18T12:04:54.437Z,4.32
2023-04-18T12:06:02.792Z,4.07
2023-04-18T12:07:05.970Z,4.20
2023-04-18T12:08:11.631Z,4.60
2023-04-18T12:09:15.816Z,4.10
2023-04-18T12:10:31.180Z,4.60
2023-04-18T12:11:35.692Z,4.35
2023-04-18T12:12:39.561Z,4.28
2023-04-18T12:13:42.323Z,4.32
2023-04-18T12:14:47.805Z,4.20
2023-04-18T12:15:54.570Z,3.90
2023-04-18T12:16:57.553Z,4.15
2023-04-18T12:18:02.937Z,4.10
2023-04-18T12:19:06.799Z,4.25
2023-04-18T12:20:14.209Z,4.00
2023-04-18T12:21:18.984Z,4.03
2023-04-18T12:22:37.927Z,4.10
2023-04-18T12:23:43.088Z,4.60
2023-04-18T12:24:47.924Z,4.68
2023-04-18T12:26:00.777Z,4.30
2023-04-18T12:27:06.450Z,4.20
2023-04-18T12:28:17.145Z,4.82
2023-04-18T12:29:19.790Z,5.80
2023-04-18T12:30:27.554Z,5.00
2023-04-18T12:31:32.632Z,4.57
2023-04-18T12:32:36.684Z,5.47
2023-04-18T12:33:45.085Z,5.00
2023-04-18T12:34:49.014Z,4.80
2023-04-18T12:35:58.148Z,4.50
2023-04-18T12:37:01.197Z,4.70
2023-04-18T12:38:05.058Z,4.55
2023-04-18T12:39:08.302Z,4.63
2023-04-18T12:40:13.915Z,5.07
2023-04-18T12:41:17.769Z,4.70
2023-04-18T12:42:25.110Z,5.30
2023-04-18T12:43:32.146Z,5.28
2023-04-18T12:44:38.197Z,4.90
2023-04-18T12:45:49.399Z,5.55
2023-04-18T12:46:53.232Z,4.97
2023-04-18T12:47:57.214Z,5.32
2023-04-18T12:49:03.525Z,5.80
2023-04-18T12:50:10.719Z,4.82
2023-04-18T12:51:15.353Z,4.72
2023-04-18T12:52:17.901Z,4.75
2023-04-18T12:53:21.664Z,5.28
2023-04-18T12:54:26.184Z,5.13
2023-04-18T12:55:30.304Z,4.65
2023-04-18T12:56:34.158Z,4.72
2023-04-18T12:57:39.764Z,4.93
2023-04-18T12:58:43.512Z,4.72
2023-04-18T12:59:46.244Z,4.63
2023-04-18T13:00:50.056Z,4.28
2023-04-18T13:01:52.671Z,5.25
2023-04-18T13:02:56.609Z,5.25
2023-04-18T13:04:10.880Z,4.60
2023-04-18T13:05:18.415Z,4.35
2023-04-18T13:06:22.138Z,5.03
2023-04-18T13:07:25.072Z,4.28
2023-04-18T13:08:28.815Z,4.40
2023-04-18T13:09:31.742Z,4.40
2023-04-18T13:10:35.827Z,4.40
2023-04-18T13:11:38.458Z,4.47
2023-04-18T13:12:43.636Z,4.70
2023-04-18T13:13:46.937Z,4.32
2023-04-18T13:14:50.623Z,4.63
2023-04-18T13:15:53.473Z,4.40
2023-04-18T13:16:57.201Z,4.90
2023-04-18T13:18:05.141Z,4.90
2023-04-18T13:19:08.938Z,4.90
2023-04-18T13:20:13.161Z,4.40
2023-04-18T13:21:17.170Z,4.70
2023-04-18T13:22:21.009Z,5.47
2023-04-18T13:24:27.025Z,4.88
2023-04-18T13:25:30.778Z,4.78
2023-04-18T13:26:36.681Z,5.30
2023-04-18T13:27:42.797Z,4.90
2023-04-18T13:28:45.357Z,4.35
2023-04-18T13:29:49.066Z,4.30
2023-04-18T13:31:55.133Z,4.80
2023-04-18T13:32:59.024Z,5.18
2023-04-18T13:34:01.668Z,5.00
2023-04-18T13:35:07.867Z,5.22
2023-04-18T13:36:12.164Z,5.57
2023-04-18T13:37:17.064Z,4.45
2023-04-18T13:38:19.622Z,4.60
2023-04-18T13:39:24.649Z,5.10
2023-04-18T13:40:28.199Z,5.55
2023-04-18T13:41:31.032Z,4.93
2023-04-18T13:42:35.954Z,5.25
2023-04-18T13:43:40.189Z,4.93
2023-04-18T13:44:43.857Z,5.32
2023-04-18T13:45:46.705Z,5.20
2023-04-18T13:46:50.360Z,5.35
2023-04-18T13:47:54.474Z,5.25
2023-04-18T13:48:57.157Z,4.82
2023-04-18T13:50:00.912Z,5.53
2023-04-18T13:51:03.707Z,5.68
2023-04-18T13:52:07.501Z,5.15
2023-04-18T13:53:10.449Z,4.93
2023-04-18T13:54:16.626Z,4.97
2023-04-18T13:55:20.566Z,6.28
2023-04-18T13:56:23.476Z,4.82
2023-04-18T13:57:27.272Z,5.40
2023-04-18T13:58:31.101Z,5.35
2023-04-18T13:59:36.170Z,5.30
2023-04-18T14:00:40.296Z,5.13
2023-04-18T14:01:43.444Z,4.90
2023-04-18T14:02:47.472Z,4.93
2023-04-18T14:03:50.515Z,4.97
2023-04-18T14:04:55.132Z,5.15
2023-04-18T14:05:59.486Z,6.15
2023-04-18T14:07:04.030Z,5.40
2023-04-18T14:08:09.140Z,5.05
2023-04-18T14:09:12.430Z,5.10
2023-04-18T14:10:16.637Z,5.18
2023-04-18T14:11:20.719Z,5.32
2023-04-18T14:12:23.904Z,4.88
2023-04-18T14:13:27.846Z,4.72
2023-04-18T14:14:38.065Z,5.10
2023-04-18T14:15:40.745Z,5.15
2023-04-18T14:16:44.387Z,4.90
2023-04-18T14:17:48.219Z,4.43
2023-04-18T14:18:50.819Z,5.22
2023-04-18T14:19:57.039Z,4.85
2023-04-18T14:20:59.882Z,5.20
2023-04-18T14:22:03.783Z,5.47
2023-04-18T14:23:06.483Z,5.03
2023-04-18T14:24:14.884Z,4.80
2023-04-18T14:25:18.079Z,4.50
2023-04-18T14:26:22.301Z,4.78
2023-04-18T14:27:26.797Z,4.70
2023-04-18T14:28:31.123Z,4.82
2023-04-18T14:29:39.635Z,4.57
2023-04-18T14:30:42.613Z,4.53
2023-04-18T14:31:46.595Z,4.40
2023-04-18T14:32:50.916Z,4.60
2023-04-18T14:33:53.706Z,4.70
2023-04-18T14:34:59.139Z,4.45
2023-04-18T14:36:09.867Z,4.80
2023-04-18T14:37:15.541Z,3.95
2023-04-18T14:38:19.605Z,5.10
2023-04-18T14:39:23.452Z,4.15
2023-04-18T14:40:28.305Z,4.72
2023-04-18T14:41:32.293Z,4.68
2023-04-18T14:42:34.971Z,5.13
2023-04-18T14:43:38.812Z,4.07
2023-04-18T14:45:03.535Z,4.57
2023-04-18T14:46:17.680Z,4.85
2023-04-18T14:47:26.832Z,4.35
2023-04-18T14:48:47.622Z,4.18
2023-04-18T14:50:02.097Z,5.00
2023-04-18T14:51:11.592Z,3.95
2023-04-18T14:52:17.476Z,4.75
2023-04-18T14:53:20.749Z,5.68
2023-04-18T14:54:24.632Z,4.20
2023-04-18T14:55:29.888Z,4.75
2023-04-18T14:56:33.537Z,5.07
2023-04-18T14:57:37.985Z,4.75
2023-04-18T14:58:41.894Z,4.82
2023-04-18T14:59:46.364Z,4.57
2023-04-18T15:00:50.545Z,4.53
2023-04-18T15:01:57.460Z,4.43
2023-04-18T15:03:00.254Z,4.78
2023-04-18T15:04:04.879Z,4.90
2023-04-18T15:05:19.941Z,4.05
2023-04-18T15:06:24.607Z,4.57
2023-04-18T15:07:27.404Z,4.72
2023-04-18T15:08:33.768Z,4.63